createdAt,value
2023-10-08T00:01:16.321Z,12.73
2023-10-08T00:06:23.134Z,11.73
2023-10-08T00:11:25.461Z,11.80
2023-10-08T00:16:30.047Z,11.35
2023-10-08T00:21:34.901Z,10.85
2023-10-08T00:26:41.844Z,10.32
2023-10-08T00:31:47.044Z,11.35
2023-10-08T00:36:50.677Z,11.70
2023-10-08T00:42:01.147Z,10.82
2023-10-08T00:47:06.366Z,10.73
2023-10-08T00:52:11.547Z,11.23
2023-10-08T00:57:23.114Z,10.88
2023-10-08T01:02:56.874Z,10.77
2023-10-08T01:08:00.360Z,11.35
2023-10-08T01:13:02.655Z,10.55
2023-10-08T01:18:16.431Z,11.27
2023-10-08T01:23:22.317Z,9.90
2023-10-08T01:28:30.452Z,9.43
2023-10-08T01:33:33.790Z,11.15
2023-10-08T01:38:36.546Z,10.88
2023-10-08T01:43:40.300Z,10.65
2023-10-08T01:48:46.720Z,10.20
2023-10-08T01:53:49.515Z,10.40
2023-10-08T01:58:52.112Z,11.30
2023-10-08T02:03:54.755Z,10.50
2023-10-08T02:08:57.469Z,9.90
2023-10-08T02:13:59.918Z,9.95
2023-10-08T02:19:02.169Z,10.73
2023-10-08T02:24:04.842Z,10.73
2023-10-08T02:29:12.128Z,10.60
2023-10-08T02:34:14.963Z,10.40
2023-10-08T02:39:24.813Z,10.63
2023-10-08T02:44:28.923Z,10.00
2023-10-08T02:49:33.300Z,10.13
2023-10-08T02:54:38.998Z,11.20
2023-10-08T02:59:42.671Z,10.73
2023-10-08T03:04:47.190Z,11.52
2023-10-08T03:10:05.194Z,11.68
2023-10-08T03:15:26.742Z,11.43
2023-10-08T03:20:40.233Z,10.55
2023-10-08T03:25:47.542Z,11.02
2023-10-08T03:30:51.468Z,11.75
2023-10-08T03:35:56.598Z,12.10
2023-10-08T03:41:05.140Z,11.00
2023-10-08T03:46:07.452Z,11.32
2023-10-08T03:51:13.340Z,10.48
2023-10-08T03:56:16.049Z,10.80
2023-10-08T04:01:22.507Z,10.82
2023-10-08T04:06:32.982Z,10.93
2023-10-08T04:11:43.572Z,11.55
2023-10-08T04:16:47.094Z,11.43
2023-10-08T04:21:58.713Z,12.35
2023-10-08T04:27:00.999Z,11.57
2023-10-08T04:32:09.236Z,10.73
2023-10-08T04:37:14.416Z,11.82
2023-10-08T04:42:19.783Z,11.23
2023-10-08T04:47:34.424Z,11.27
2023-10-08T04:52:47.082Z,11.57
2023-10-08T04:57:50.686Z,11.77
2023-10-08T05:02:55.747Z,12.05
2023-10-08T05:08:18.521Z,10.95
2023-10-08T05:13:32.054Z,11.20
2023-10-08T05:19:00.136Z,12.05
2023-10-08T05:24:14.188Z,10.88
2023-10-08T05:29:51.452Z,11.75
2023-10-08T05:35:13.668Z,11.27
2023-10-08T05:40:35.774Z,11.65
2023-10-08T05:45:38.378Z,11.15
2023-10-08T05:50:43.861Z,11.70
2023-10-08T05:55:49.448Z,11.23
2023-10-08T06:00:52.919Z,11.50
2023-10-08T06:06:15.144Z,12.23
2023-10-08T06:11:55.498Z,12.02
2023-10-08T06:17:17.568Z,13.15
2023-10-08T06:22:20.748Z,13.18
2023-10-08T06:27:26.937Z,12.85
2023-10-08T06:32:31.896Z,11.55
2023-10-08T06:37:36.307Z,12.88
2023-10-08T06:42:39.209Z,12.30
2023-10-08T06:47:42.091Z,12.52
2023-10-08T06:52:45.069Z,12.82
2023-10-08T06:57:49.489Z,12.52
2023-10-08T07:02:52.647Z,13.05
2023-10-08T07:07:55.009Z,12.65
2023-10-08T07:12:57.264Z,11.38
2023-10-08T07:18:09.754Z,12.35
2023-10-08T07:23:20.335Z,11.52
2023-10-08T07:28:22.647Z,12.82
2023-10-08T07:33:26.695Z,12.63
2023-10-08T07:38:30.180Z,13.05
2023-10-08T07:43:34.254Z,11.23
2023-10-08T07:48:44.568Z,11.60
2023-10-08T07:53:48.509Z,11.98
2023-10-08T07:58:52.347Z,11.32
2023-10-08T08:03:54.772Z,11.25
2023-10-08T08:08:57.184Z,12.20
2023-10-08T08:14:00.929Z,12.23
2023-10-08T08:19:03.499Z,12.43
2023-10-08T08:24:09.381Z,12.07
2023-10-08T08:29:16.957Z,11.50
2023-10-08T08:34:21.335Z,11.15
2023-10-08T08:39:33.849Z,11.32
2023-10-08T08:44:48.945Z,11.45
2023-10-08T08:49:54.973Z,10.73
2023-10-08T08:54:58.338Z,22.63
2023-10-08T09:00:01.151Z,12.23
2023-10-08T09:05:14.634Z,9.68
2023-10-08T09:10:19.591Z,10.13
2023-10-08T09:15:24.213Z,10.95
2023-10-08T09:20:28.119Z,11.23
2023-10-08T09:25:34.091Z,9.55
2023-10-08T09:30:41.438Z,9.75
2023-10-08T09:35:47.673Z,9.98
2023-10-08T09:40:50.436Z,8.48
2023-10-08T09:46:07.351Z,9.13
2023-10-08T09:51:14.081Z,8.38
2023-10-08T09:56:17.451Z,8.63
2023-10-08T10:01:24.140Z,8.55
2023-10-08T10:06:26.599Z,8.25
2023-10-08T10:11:30.660Z,7.97
2023-10-08T10:16:32.956Z,8.02
2023-10-08T10:21:35.590Z,7.25
2023-10-08T10:26:42.020Z,9.95
2023-10-08T10:31:50.713Z,9.00
2023-10-08T10:42:04.674Z,8.15
2023-10-08T10:47:19.314Z,7.82
2023-10-08T10:52:44.643Z,8.40
2023-10-08T10:57:58.520Z,7.07
2023-10-08T11:03:04.552Z,19.25
2023-10-08T11:08:10.496Z,7.45
2023-10-08T11:13:18.785Z,7.68
2023-10-08T11:18:23.315Z,6.90
2023-10-08T11:23:43.421Z,7.07
2023-10-08T11:28:48.769Z,7.68
2023-10-08T11:33:56.804Z,6.70
2023-10-08T11:39:13.131Z,6.45
2023-10-08T11:44:15.856Z,6.95
2023-10-08T11:49:27.101Z,7.13
2023-10-08T11:54:29.536Z,6.70
2023-10-08T11:59:33.692Z,6.85
2023-10-08T12:04:37.818Z,5.90
2023-10-08T12:09:42.502Z,6.55
2023-10-08T12:14:48.779Z,6.38
2023-10-08T12:19:53.089Z,6.55
2023-10-08T12:24:55.307Z,6.88
2023-10-08T12:30:00.780Z,6.68
2023-10-08T12:35:03.156Z,6.55
2023-10-08T12:40:13.347Z,6.50
2023-10-08T12:45:15.714Z,6.30
2023-10-08T12:50:51.839Z,5.95
2023-10-08T12:55:59.564Z,6.35
2023-10-08T13:01:05.373Z,7.05
2023-10-08T13:06:07.804Z,6.80
2023-10-08T13:11:10.046Z,6.53
2023-10-08T13:16:12.440Z,6.80
2023-10-08T13:21:15.026Z,6.07
2023-10-08T13:26:18.700Z,7.40
2023-10-08T13:31:21.531Z,6.40
2023-10-08T13:36:27.164Z,6.10
2023-10-08T13:41:32.050Z,6.47
2023-10-08T13:46:38.304Z,6.07
2023-10-08T13:51:40.584Z,5.45
2023-10-08T13:56:49.958Z,5.30
2023-10-08T14:01:56.535Z,6.28
2023-10-08T14:07:00.102Z,5.53
2023-10-08T14:12:02.480Z,5.03
2023-10-08T14:17:07.735Z,5.80
2023-10-08T14:22:15.961Z,6.18
2023-10-08T14:27:20.108Z,5.25
2023-10-08T14:32:22.380Z,5.20
2023-10-08T14:37:43.251Z,5.30
2023-10-08T14:43:00.032Z,5.25
2023-10-08T14:48:07.173Z,5.45
2023-10-08T14:53:09.700Z,4.80
2023-10-08T14:58:12.420Z,5.43
2023-10-08T15:03:15.030Z,5.38
2023-10-08T15:08:20.183Z,5.53
2023-10-08T15:13:22.862Z,5.10
2023-10-08T15:18:33.313Z,5.60
2023-10-08T15:23:37.151Z,5.25
2023-10-08T15:28:42.097Z,5.28
2023-10-08T15:33:44.492Z,5.30
2023-10-08T15:38:47.115Z,5.85
2023-10-08T15:43:53.303Z,5.38
2023-10-08T15:48:55.709Z,5.97
2023-10-08T15:53:58.052Z,6.07
2023-10-08T15:59:00.592Z,5.55
2023-10-08T16:04:03.125Z,6.82
2023-10-08T16:09:07.405Z,5.75
2023-10-08T16:14:09.678Z,7.53
2023-10-08T16:19:12.190Z,8.75
2023-10-08T16:24:14.707Z,8.32
2023-10-08T16:29:17.179Z,8.43
2023-10-08T16:34:19.900Z,8.35
2023-10-08T16:39:25.871Z,9.43
2023-10-08T16:44:28.274Z,10.70
2023-10-08T16:49:30.786Z,14.20
2023-10-08T16:54:33.279Z,14.38
2023-10-08T16:59:38.931Z,18.23
2023-10-08T17:04:48.615Z,19.17
2023-10-08T17:09:53.079Z,20.65
2023-10-08T17:14:55.910Z,19.45
2023-10-08T17:19:58.457Z,19.00
2023-10-08T17:25:00.892Z,18.98
2023-10-08T17:30:07.716Z,18.83
2023-10-08T17:35:10.700Z,18.77
2023-10-08T17:40:13.475Z,20.55
2023-10-08T17:45:16.424Z,30.63
2023-10-08T17:50:19.257Z,30.33
2023-10-08T17:55:21.773Z,34.08
2023-10-08T18:00:28.331Z,38.55
2023-10-08T18:05:33.346Z,33.55
2023-10-08T18:10:37.350Z,32.17
2023-10-08T18:15:40.360Z,32.25
2023-10-08T18:20:45.905Z,19.70
2023-10-08T18:25:48.223Z,18.20
2023-10-08T18:30:51.560Z,16.35
2023-10-08T18:35:54.262Z,17.05
2023-10-08T18:40:57.320Z,16.95
2023-10-08T18:46:00.885Z,15.88
2023-10-08T18:51:13.107Z,14.30
2023-10-08T18:56:20.326Z,17.80
2023-10-08T19:01:30.903Z,18.90
2023-10-08T19:06:33.550Z,16.63
2023-10-08T19:11:36.821Z,15.82
2023-10-08T19:16:39.959Z,16.83
2023-10-08T19:21:42.248Z,15.55
2023-10-08T19:26:44.661Z,15.75
2023-10-08T19:31:47.799Z,18.48
2023-10-08T19:36:50.883Z,17.73
2023-10-08T19:41:53.526Z,18.23
2023-10-08T19:46:56.631Z,17.92
2023-10-08T19:51:59.174Z,16.33
2023-10-08T19:57:02.538Z,14.70
2023-10-08T20:02:04.897Z,12.80
2023-10-08T20:07:09.046Z,14.00
2023-10-08T20:12:11.746Z,14.98
2023-10-08T20:17:14.663Z,15.32
2023-10-08T20:22:18.027Z,15.65
2023-10-08T20:27:21.669Z,14.85
2023-10-08T20:32:30.970Z,13.73
2023-10-08T20:37:34.770Z,14.63
2023-10-08T20:42:38.135Z,13.10
2023-10-08T20:47:41.739Z,12.07
2023-10-08T20:52:47.496Z,11.82
2023-10-08T20:57:51.004Z,12.60
2023-10-08T21:02:53.333Z,13.45
2023-10-08T21:07:56.172Z,13.15
2023-10-08T21:12:58.503Z,13.43
2023-10-08T21:18:00.753Z,13.00
2023-10-08T21:23:06.741Z,15.27
2023-10-08T21:28:10.610Z,13.32
2023-10-08T21:33:13.237Z,13.25
2023-10-08T21:38:15.714Z,13.38
2023-10-08T21:43:30.069Z,12.75
2023-10-08T21:48:35.491Z,10.70
2023-10-08T21:53:37.896Z,12.27
2023-10-08T21:58:40.990Z,11.43
2023-10-08T22:03:45.524Z,10.90
2023-10-08T22:08:50.296Z,11.80
2023-10-08T22:13:53.135Z,12.20
2023-10-08T22:18:58.373Z,11.75
2023-10-08T22:24:01.420Z,10.73
2023-10-08T22:29:04.261Z,11.55
2023-10-08T22:34:17.127Z,11.13
2023-10-08T22:39:22.259Z,10.18
2023-10-08T22:44:27.767Z,9.02
2023-10-08T22:49:33.368Z,7.53
2023-10-08T22:54:36.453Z,7.13
2023-10-08T22:59:41.480Z,7.07
2023-10-08T23:04:45.591Z,6.88
2023-10-08T23:09:47.985Z,6.00
2023-10-08T23:14:50.225Z,6.30
2023-10-08T23:19:53.137Z,6.47
2023-10-08T23:24:57.357Z,6.63
2023-10-08T23:29:59.985Z,6.03
2023-10-08T23:35:02.465Z,5.68
2023-10-08T23:40:20.407Z,6.38
2023-10-08T23:45:28.356Z,5.45
2023-10-08T23:50:35.270Z,6.05
2023-10-08T23:55:57.538Z,6.53
